Time;durP1;ratioP1;P1;durP2;ratioP2;P2;SDS_P1;SDS_P2;PMS_P1;PMS_P2;Temp;Humidity;BMP_temperature;BMP_pressure;BME280_temperature;BME280_humidity;BME280_pressure;Samples;Min_cycle;Max_cycle;Signal;HPM_P1;HPM_P2
2021/10/17 00:01:06;;;;;;;5.70;3.80;;;;;;;;;;4429979;32;20723;-54
2021/10/17 00:03:31;;;;;;;7.63;5.13;;;;;;;;;;4433885;32;20630;-55
2021/10/17 00:05:57;;;;;;;9.33;4.90;;;;;;;;;;4432766;32;20334;-55
2021/10/17 00:08:22;;;;;;;7.10;4.83;;;;;;;;;;4433666;32;20721;-55
2021/10/17 00:10:48;;;;;;;7.00;4.53;;;;;;;;;;4421427;32;20320;-56
2021/10/17 00:13:13;;;;;;;9.47;4.27;;;;;;;;;;4431989;32;20315;-54
2021/10/17 00:15:39;;;;;;;5.83;4.33;;;;;;;;;;4433058;32;20315;-55
2021/10/17 00:18:07;;;;;;;6.13;4.03;;;;;;;;;;4431906;32;20625;-55
2021/10/17 00:20:33;;;;;;;7.27;5.00;;;;;;;;;;4419838;32;20297;-55
2021/10/17 00:22:59;;;;;;;7.57;5.10;;;;;;;;;;4416362;32;20626;-55
2021/10/17 00:25:25;;;;;;;9.00;4.73;;;;;;;;;;4421070;32;20691;-55
2021/10/17 00:27:52;;;;;;;8.63;4.60;;;;;;;;;;4418191;32;20563;-55
2021/10/17 00:30:17;;;;;;;5.27;3.97;;;;;;;;;;4419722;32;20236;-55
2021/10/17 00:32:43;;;;;;;6.07;4.07;;;;;;;;;;4417843;32;20744;-55
2021/10/17 00:35:10;;;;;;;4.43;3.67;;;;;;;;;;4427273;32;20319;-55
2021/10/17 00:37:36;;;;;;;11.03;4.63;;;;;;;;;;4432896;32;20370;-55
2021/10/17 00:40:09;;;;;;;5.53;4.10;;;;;;;;;;4432491;32;20330;-56
2021/10/17 00:42:35;;;;;;;8.63;5.63;;;;;;;;;;4432728;32;20290;-55
2021/10/17 00:45:04;;;;;;;10.40;7.20;;;;;;;;;;4432522;32;20291;-56
2021/10/17 00:47:30;;;;;;;14.03;6.63;;;;;;;;;;4432734;32;20292;-56
2021/10/17 00:49:55;;;;;;;11.73;6.53;;;;;;;;;;4424139;32;20300;-55
2021/10/17 00:52:21;;;;;;;8.37;4.63;;;;;;;;;;4432472;32;20728;-56
2021/10/17 00:54:47;;;;;;;17.23;6.23;;;;;;;;;;4432051;32;20329;-60
2021/10/17 00:57:14;;;;;;;14.70;6.60;;;;;;;;;;4432128;32;20273;-54
2021/10/17 00:59:40;;;;;;;16.87;6.67;;;;;;;;;;4431465;32;20624;-55
2021/10/17 01:02:06;;;;;;;12.27;5.47;;;;;;;;;;4432179;32;20241;-55
2021/10/17 01:04:32;;;;;;;7.17;4.10;;;;;;;;;;4432472;32;20307;-55
2021/10/17 01:06:58;;;;;;;4.63;3.00;;;;;;;;;;4432491;32;20581;-55
2021/10/17 01:09:23;;;;;;;10.60;4.63;;;;;;;;;;4432493;32;20371;-55
2021/10/17 01:11:49;;;;;;;10.40;4.00;;;;;;;;;;4429416;32;20682;-55
2021/10/17 01:14:23;;;;;;;6.67;4.60;;;;;;;;;;4432716;32;20723;-56
2021/10/17 01:16:50;;;;;;;4.63;3.77;;;;;;;;;;4432726;32;20300;-54
2021/10/17 01:19:17;;;;;;;5.03;3.87;;;;;;;;;;4432699;32;20275;-53
2021/10/17 01:21:42;;;;;;;4.60;3.67;;;;;;;;;;4431946;32;20220;-53
2021/10/17 01:24:09;;;;;;;4.20;3.30;;;;;;;;;;4432228;32;20329;-54
2021/10/17 01:26:35;;;;;;;5.30;3.50;;;;;;;;;;4432661;32;20315;-53
2021/10/17 01:29:01;;;;;;;11.13;4.30;;;;;;;;;;4432318;32;20233;-54
2021/10/17 01:31:39;;;;;;;6.53;4.50;;;;;;;;;;4432275;32;20250;-55
2021/10/17 01:34:07;;;;;;;11.10;6.90;;;;;;;;;;4435515;32;20309;-55
2021/10/17 01:36:34;;;;;;;8.13;5.80;;;;;;;;;;4435364;32;20232;-55
2021/10/17 01:38:59;;;;;;;8.20;5.50;;;;;;;;;;4435419;32;20239;-56
2021/10/17 01:41:25;;;;;;;6.77;5.10;;;;;;;;;;4436093;32;20300;-55
2021/10/17 01:43:51;;;;;;;9.03;5.13;;;;;;;;;;4435557;32;20295;-56
2021/10/17 01:46:17;;;;;;;5.17;3.70;;;;;;;;;;4435264;32;20268;-55
2021/10/17 01:48:42;;;;;;;8.33;5.73;;;;;;;;;;4434949;32;20295;-55
2021/10/17 01:51:08;;;;;;;10.03;5.87;;;;;;;;;;4435689;32;20838;-55
2021/10/17 01:53:33;;;;;;;10.10;7.00;;;;;;;;;;4435689;32;20318;-55
2021/10/17 01:56:00;;;;;;;15.30;9.80;;;;;;;;;;4435193;32;20314;-54
2021/10/17 01:58:26;;;;;;;19.20;10.97;;;;;;;;;;4433979;32;20256;-54
2021/10/17 02:00:53;;;;;;;17.23;11.23;;;;;;;;;;4433703;32;20358;-55
2021/10/17 02:03:19;;;;;;;19.87;11.10;;;;;;;;;;4434935;32;20246;-55
2021/10/17 02:05:45;;;;;;;19.27;10.03;;;;;;;;;;4434864;32;20699;-55
2021/10/17 02:08:10;;;;;;;12.83;8.40;;;;;;;;;;4433459;32;20315;-54
2021/10/17 02:10:36;;;;;;;18.13;9.27;;;;;;;;;;4420758;32;20355;-55
2021/10/17 02:13:01;;;;;;;21.00;12.40;;;;;;;;;;4431191;32;20256;-55
2021/10/17 02:15:27;;;;;;;21.90;12.43;;;;;;;;;;4435156;32;20317;-55
2021/10/17 02:17:52;;;;;;;26.47;14.50;;;;;;;;;;4433336;32;20877;-55
2021/10/17 02:20:18;;;;;;;37.57;16.40;;;;;;;;;;4435348;32;20283;-54
2021/10/17 02:22:43;;;;;;;19.93;10.73;;;;;;;;;;4434895;32;20314;-54
2021/10/17 02:25:09;;;;;;;19.27;11.03;;;;;;;;;;4435196;32;20303;-54
2021/10/17 02:27:35;;;;;;;17.97;9.33;;;;;;;;;;4433816;32;20224;-54
2021/10/17 02:30:00;;;;;;;17.73;9.77;;;;;;;;;;4434743;32;20314;-54
2021/10/17 02:32:26;;;;;;;14.17;9.33;;;;;;;;;;4435079;32;20224;-55
2021/10/17 02:34:51;;;;;;;11.70;7.43;;;;;;;;;;4434735;32;20291;-55
2021/10/17 02:37:16;;;;;;;13.80;7.30;;;;;;;;;;4435103;32;20728;-55
2021/10/17 02:39:42;;;;;;;10.47;6.87;;;;;;;;;;4435047;32;20699;-55
2021/10/17 02:42:07;;;;;;;13.37;7.63;;;;;;;;;;4434604;32;20315;-54
2021/10/17 02:44:33;;;;;;;10.13;6.97;;;;;;;;;;4434245;32;20673;-54
2021/10/17 02:46:58;;;;;;;11.17;7.60;;;;;;;;;;4434763;32;20273;-55
2021/10/17 02:49:25;;;;;;;11.90;7.90;;;;;;;;;;4434411;32;20387;-56
2021/10/17 02:51:50;;;;;;;12.13;8.03;;;;;;;;;;4434624;32;20251;-55
2021/10/17 02:54:17;;;;;;;12.27;7.83;;;;;;;;;;4434635;32;20355;-55
2021/10/17 02:56:43;;;;;;;10.07;7.10;;;;;;;;;;4434713;32;20591;-55
2021/10/17 02:59:09;;;;;;;11.57;8.03;;;;;;;;;;4434421;32;20782;-56
2021/10/17 03:01:34;;;;;;;13.47;9.70;;;;;;;;;;4432998;32;20240;-55
2021/10/17 03:03:59;;;;;;;16.93;7.67;;;;;;;;;;4434169;32;20205;-55
2021/10/17 03:06:27;;;;;;;12.63;7.63;;;;;;;;;;4433144;32;20237;-55
2021/10/17 03:08:53;;;;;;;11.17;7.47;;;;;;;;;;4433486;32;20298;-55
2021/10/17 03:11:19;;;;;;;12.13;7.17;;;;;;;;;;4434507;32;20704;-54
2021/10/17 03:13:45;;;;;;;11.87;7.20;;;;;;;;;;4434248;32;20400;-54
2021/10/17 03:16:10;;;;;;;14.00;7.80;;;;;;;;;;4434030;32;20296;-55
2021/10/17 03:18:35;;;;;;;14.77;8.07;;;;;;;;;;4434565;32;20280;-54
2021/10/17 03:21:01;;;;;;;9.90;6.97;;;;;;;;;;4433464;32;20346;-54
2021/10/17 03:23:26;;;;;;;15.53;7.57;;;;;;;;;;4434389;32;20339;-55
2021/10/17 03:25:52;;;;;;;8.53;6.33;;;;;;;;;;4432368;32;20343;-54
2021/10/17 03:28:17;;;;;;;12.10;7.80;;;;;;;;;;4434579;32;20310;-54
2021/10/17 03:30:43;;;;;;;15.50;6.57;;;;;;;;;;4433961;32;20379;-53
2021/10/17 03:33:08;;;;;;;14.87;6.40;;;;;;;;;;4433708;32;20787;-53
2021/10/17 03:35:34;;;;;;;13.27;6.50;;;;;;;;;;4434362;32;20304;-55
2021/10/17 03:37:59;;;;;;;15.20;6.73;;;;;;;;;;4433860;32;20292;-54
2021/10/17 03:40:24;;;;;;;11.73;6.53;;;;;;;;;;4433543;32;20310;-54
2021/10/17 03:42:50;;;;;;;9.93;5.97;;;;;;;;;;4432757;32;20278;-55
2021/10/17 03:45:16;;;;;;;10.97;7.20;;;;;;;;;;4433669;32;20349;-55
2021/10/17 03:47:42;;;;;;;11.83;6.47;;;;;;;;;;4433878;32;20661;-55
2021/10/17 03:50:08;;;;;;;10.93;7.67;;;;;;;;;;4433205;32;20298;-54
2021/10/17 03:52:33;;;;;;;11.97;7.07;;;;;;;;;;4433696;32;20341;-55
2021/10/17 03:54:59;;;;;;;13.47;6.63;;;;;;;;;;4432228;32;20304;-55
2021/10/17 03:57:24;;;;;;;10.80;7.47;;;;;;;;;;4432679;32;20228;-55
2021/10/17 03:59:50;;;;;;;12.00;6.60;;;;;;;;;;4433616;32;20697;-55
2021/10/17 04:02:15;;;;;;;10.17;6.47;;;;;;;;;;4433033;32;20708;-56
2021/10/17 04:04:41;;;;;;;10.00;6.43;;;;;;;;;;4432291;32;20395;-56
2021/10/17 04:07:07;;;;;;;9.60;6.23;;;;;;;;;;4433696;32;20331;-55
2021/10/17 04:09:32;;;;;;;8.80;6.13;;;;;;;;;;4433762;32;20351;-57
2021/10/17 04:11:58;;;;;;;8.33;5.00;;;;;;;;;;4428845;32;20292;-55
2021/10/17 04:14:23;;;;;;;7.13;4.50;;;;;;;;;;4433551;32;20678;-55
2021/10/17 04:16:49;;;;;;;7.50;5.80;;;;;;;;;;4433835;32;20288;-55
2021/10/17 04:19:14;;;;;;;9.20;6.17;;;;;;;;;;4433496;32;20275;-54
2021/10/17 04:21:40;;;;;;;10.03;5.20;;;;;;;;;;4433218;32;20221;-53
2021/10/17 04:24:06;;;;;;;9.73;4.70;;;;;;;;;;4432765;32;20318;-53
2021/10/17 04:26:32;;;;;;;9.00;5.47;;;;;;;;;;4433523;32;20255;-54
2021/10/17 04:28:58;;;;;;;7.20;4.60;;;;;;;;;;4432911;32;20275;-54
2021/10/17 04:31:23;;;;;;;6.37;4.67;;;;;;;;;;4431836;32;20420;-54
2021/10/17 04:33:49;;;;;;;12.63;4.90;;;;;;;;;;4433232;32;20737;-54
2021/10/17 04:36:14;;;;;;;12.47;5.37;;;;;;;;;;4432914;32;20549;-54
2021/10/17 04:38:40;;;;;;;12.03;5.10;;;;;;;;;;4433379;32;20784;-53
2021/10/17 04:41:06;;;;;;;10.40;5.73;;;;;;;;;;4433150;32;20344;-53
2021/10/17 04:43:31;;;;;;;13.60;6.03;;;;;;;;;;4419088;32;20327;-54
2021/10/17 04:45:57;;;;;;;7.93;5.40;;;;;;;;;;4433008;32;20334;-54
2021/10/17 04:48:23;;;;;;;9.17;6.40;;;;;;;;;;4433084;32;20746;-56
2021/10/17 04:50:48;;;;;;;15.83;9.37;;;;;;;;;;4431689;32;20315;-54
2021/10/17 04:53:14;;;;;;;19.37;12.70;;;;;;;;;;4433062;32;20771;-55
2021/10/17 04:55:39;;;;;;;19.87;12.40;;;;;;;;;;4433246;32;20306;-54
2021/10/17 04:58:05;;;;;;;9.37;6.63;;;;;;;;;;4432567;32;20252;-54
2021/10/17 05:00:31;;;;;;;12.23;8.07;;;;;;;;;;4432630;32;20550;-53
2021/10/17 05:02:56;;;;;;;13.27;8.67;;;;;;;;;;4430557;32;20241;-54
2021/10/17 05:05:22;;;;;;;18.07;11.63;;;;;;;;;;4432471;32;20345;-55
2021/10/17 05:07:47;;;;;;;18.97;14.87;;;;;;;;;;4431581;32;20689;-54
2021/10/17 05:10:12;;;;;;;18.50;12.83;;;;;;;;;;4432162;32;20320;-54
2021/10/17 05:12:38;;;;;;;20.40;11.40;;;;;;;;;;4430356;32;20332;-53
2021/10/17 05:15:04;;;;;;;19.10;12.80;;;;;;;;;;4432617;32;20728;-54
2021/10/17 05:17:29;;;;;;;22.67;15.07;;;;;;;;;;4432864;32;20689;-55
2021/10/17 05:19:54;;;;;;;18.33;14.40;;;;;;;;;;4432676;32;20288;-54
2021/10/17 05:22:20;;;;;;;21.70;15.53;;;;;;;;;;4432651;32;20245;-54
2021/10/17 05:24:45;;;;;;;23.10;16.07;;;;;;;;;;4432116;32;20359;-55
2021/10/17 05:27:11;;;;;;;31.83;23.27;;;;;;;;;;4432717;32;20334;-55
2021/10/17 05:29:36;;;;;;;28.10;19.60;;;;;;;;;;4432418;32;20312;-55
2021/10/17 05:32:02;;;;;;;31.83;20.13;;;;;;;;;;4430851;32;20637;-55
2021/10/17 05:34:27;;;;;;;33.73;20.43;;;;;;;;;;4432530;32;20315;-55
2021/10/17 05:36:52;;;;;;;23.20;14.93;;;;;;;;;;4432403;32;20245;-55
2021/10/17 05:39:18;;;;;;;18.20;13.83;;;;;;;;;;4432537;32;20360;-55
2021/10/17 05:41:43;;;;;;;23.50;14.57;;;;;;;;;;4432738;32;20363;-55
2021/10/17 05:44:09;;;;;;;12.23;7.50;;;;;;;;;;4432226;32;20846;-54
2021/10/17 05:46:34;;;;;;;14.40;8.80;;;;;;;;;;4432466;32;20307;-53
2021/10/17 05:48:59;;;;;;;19.93;12.53;;;;;;;;;;4432033;32;20670;-54
2021/10/17 05:51:25;;;;;;;17.27;11.43;;;;;;;;;;4432537;32;20347;-54
2021/10/17 05:53:50;;;;;;;13.33;8.17;;;;;;;;;;4432195;32;20314;-53
2021/10/17 05:56:16;;;;;;;9.63;7.57;;;;;;;;;;4432158;32;20297;-54
2021/10/17 05:58:41;;;;;;;12.23;7.80;;;;;;;;;;4431245;32;20383;-55
2021/10/17 06:01:07;;;;;;;15.40;10.67;;;;;;;;;;4430716;32;20740;-56
2021/10/17 06:03:32;;;;;;;24.10;15.23;;;;;;;;;;4417770;32;20372;-55
2021/10/17 06:06:01;;;;;;;54.73;30.07;;;;;;;;;;4430904;32;20335;-55
2021/10/17 06:08:28;;;;;;;23.73;14.73;;;;;;;;;;4441224;32;20704;-55
2021/10/17 06:10:54;;;;;;;16.57;8.33;;;;;;;;;;4432706;32;20296;-56
2021/10/17 06:13:20;;;;;;;11.77;7.67;;;;;;;;;;4432198;32;20300;-56
2021/10/17 06:15:46;;;;;;;8.70;6.90;;;;;;;;;;4432141;32;20682;-55
2021/10/17 06:18:11;;;;;;;5.73;4.80;;;;;;;;;;4433731;32;20327;-54
2021/10/17 06:20:36;;;;;;;7.47;5.30;;;;;;;;;;4434486;32;20283;-54
2021/10/17 06:23:02;;;;;;;6.57;5.17;;;;;;;;;;4434653;32;20340;-54
2021/10/17 06:25:27;;;;;;;8.83;6.80;;;;;;;;;;4434815;32;20352;-55
2021/10/17 06:27:53;;;;;;;16.07;11.33;;;;;;;;;;4434669;32;20292;-55
2021/10/17 06:30:18;;;;;;;12.53;7.50;;;;;;;;;;4435035;32;20672;-55
2021/10/17 06:32:44;;;;;;;13.03;8.70;;;;;;;;;;4434704;32;20311;-55
2021/10/17 06:35:09;;;;;;;14.50;9.53;;;;;;;;;;4434585;32;20736;-55
2021/10/17 06:37:35;;;;;;;11.67;8.13;;;;;;;;;;4434521;32;20297;-55
2021/10/17 06:40:00;;;;;;;13.70;8.67;;;;;;;;;;4434562;32;20640;-55
2021/10/17 06:42:26;;;;;;;17.03;11.77;;;;;;;;;;4434840;32;20279;-55
2021/10/17 06:44:51;;;;;;;15.33;9.90;;;;;;;;;;4434482;32;20770;-54
2021/10/17 06:47:17;;;;;;;12.77;8.63;;;;;;;;;;4434398;32;20252;-54
2021/10/17 06:49:42;;;;;;;11.47;7.63;;;;;;;;;;4434600;32;20726;-54
2021/10/17 06:52:07;;;;;;;10.40;6.77;;;;;;;;;;4433475;32;20454;-57
2021/10/17 06:54:33;;;;;;;10.30;8.17;;;;;;;;;;4434675;32;20333;-57
2021/10/17 06:56:58;;;;;;;14.53;8.07;;;;;;;;;;4434007;32;20607;-57
2021/10/17 06:59:24;;;;;;;10.00;6.20;;;;;;;;;;4433171;32;20327;-55
2021/10/17 07:01:49;;;;;;;16.13;11.00;;;;;;;;;;4432455;32;20240;-56
2021/10/17 07:04:15;;;;;;;33.77;20.93;;;;;;;;;;4433995;32;20275;-55
2021/10/17 07:06:40;;;;;;;22.83;15.87;;;;;;;;;;4433656;32;20288;-55
2021/10/17 07:09:07;;;;;;;16.70;12.13;;;;;;;;;;4432222;32;20338;-55
2021/10/17 07:11:33;;;;;;;17.83;11.20;;;;;;;;;;4432911;32;20321;-56
2021/10/17 07:13:58;;;;;;;16.50;11.80;;;;;;;;;;4431143;32;20682;-54
2021/10/17 07:16:24;;;;;;;13.67;11.10;;;;;;;;;;4434248;32;20651;-55
2021/10/17 07:18:49;;;;;;;11.13;8.03;;;;;;;;;;4434060;32;20718;-55
2021/10/17 07:21:15;;;;;;;17.63;11.90;;;;;;;;;;4434115;32;20303;-56
2021/10/17 07:23:40;;;;;;;13.13;9.67;;;;;;;;;;4434258;32;20622;-55
2021/10/17 07:26:05;;;;;;;10.53;8.17;;;;;;;;;;4432618;32;20434;-55
2021/10/17 07:28:31;;;;;;;7.57;6.27;;;;;;;;;;4434090;32;20319;-55
2021/10/17 07:30:56;;;;;;;8.93;6.70;;;;;;;;;;4432261;32;20651;-54
2021/10/17 07:33:22;;;;;;;10.17;6.13;;;;;;;;;;4434284;32;20740;-55
2021/10/17 07:35:47;;;;;;;5.30;4.57;;;;;;;;;;4423233;32;20339;-55
2021/10/17 07:38:13;;;;;;;7.13;5.17;;;;;;;;;;4433663;32;20703;-54
2021/10/17 07:40:38;;;;;;;4.00;3.50;;;;;;;;;;4433875;32;21108;-55
2021/10/17 07:43:04;;;;;;;10.57;8.20;;;;;;;;;;4433988;32;20391;-56
2021/10/17 07:45:31;;;;;;;3.30;3.00;;;;;;;;;;4434183;32;20299;-56
2021/10/17 07:47:56;;;;;;;9.67;7.03;;;;;;;;;;4432996;32;20275;-55
2021/10/17 07:50:22;;;;;;;5.90;3.83;;;;;;;;;;4424342;32;20237;-54
2021/10/17 07:52:47;;;;;;;5.90;3.80;;;;;;;;;;4433530;32;20337;-54
2021/10/17 07:55:13;;;;;;;7.23;4.37;;;;;;;;;;4431768;32;20359;-54
2021/10/17 07:57:59;;;;;;;5.27;4.60;;;;;;;;;;4433581;32;20611;-55
2021/10/17 08:00:27;;;;;;;5.27;4.10;;;;;;;;;;4428745;32;20319;-55
2021/10/17 08:02:53;;;;;;;5.50;3.80;;;;;;;;;;4433126;32;20376;-56
2021/10/17 08:05:19;;;;;;;5.77;4.00;;;;;;;;;;4429140;32;20770;-56
2021/10/17 08:07:45;;;;;;;4.60;3.43;;;;;;;;;;4431693;32;20256;-56
2021/10/17 08:10:11;;;;;;;18.93;11.77;;;;;;;;;;4428730;32;20338;-55
2021/10/17 08:12:37;;;;;;;10.13;5.13;;;;;;;;;;4432894;32;21004;-55
2021/10/17 08:15:04;;;;;;;3.90;3.00;;;;;;;;;;4432801;32;20252;-55
2021/10/17 08:17:30;;;;;;;5.20;3.27;;;;;;;;;;4433476;32;20221;-56
2021/10/17 08:19:55;;;;;;;6.93;4.30;;;;;;;;;;4432001;32;20314;-56
2021/10/17 08:22:21;;;;;;;4.90;3.10;;;;;;;;;;4433420;32;20768;-55
2021/10/17 08:24:47;;;;;;;6.53;3.63;;;;;;;;;;4433023;32;20275;-54
2021/10/17 08:27:12;;;;;;;8.43;3.77;;;;;;;;;;4433027;32;20256;-54
2021/10/17 08:29:38;;;;;;;6.40;5.13;;;;;;;;;;4432597;32;20356;-55
2021/10/17 08:32:03;;;;;;;7.80;4.53;;;;;;;;;;4432822;32;20374;-54
2021/10/17 08:34:29;;;;;;;8.97;6.30;;;;;;;;;;4414759;32;20370;-55
2021/10/17 08:36:54;;;;;;;12.60;5.90;;;;;;;;;;4433102;32;20301;-55
2021/10/17 08:39:20;;;;;;;5.07;4.57;;;;;;;;;;4428760;32;20346;-54
2021/10/17 08:41:46;;;;;;;6.53;5.00;;;;;;;;;;4432369;32;20266;-55
2021/10/17 08:44:12;;;;;;;4.40;3.57;;;;;;;;;;4432257;32;20743;-55
2021/10/17 08:46:39;;;;;;;8.73;6.67;;;;;;;;;;4433025;32;20225;-53
2021/10/17 08:49:05;;;;;;;3.13;2.20;;;;;;;;;;4429761;32;20643;-54
2021/10/17 08:51:31;;;;;;;2.37;2.17;;;;;;;;;;4430669;32;20292;-54
2021/10/17 08:53:56;;;;;;;5.57;3.50;;;;;;;;;;4429470;32;20291;-54
2021/10/17 08:56:22;;;;;;;5.13;4.20;;;;;;;;;;4432926;32;20257;-54
2021/10/17 08:58:47;;;;;;;7.67;5.23;;;;;;;;;;4432096;32;20344;-55
2021/10/17 09:01:16;;;;;;;8.67;6.30;;;;;;;;;;4431498;32;20236;-55
2021/10/17 09:03:50;;;;;;;10.27;6.40;;;;;;;;;;4432303;32;20216;-55
2021/10/17 09:06:17;;;;;;;10.77;7.43;;;;;;;;;;4432887;32;20243;-55
2021/10/17 09:08:43;;;;;;;19.80;9.57;;;;;;;;;;4430136;32;20236;-55
2021/10/17 09:11:09;;;;;;;8.30;4.37;;;;;;;;;;4431518;32;20794;-56
2021/10/17 09:13:35;;;;;;;3.67;3.00;;;;;;;;;;4429535;32;20221;-56
2021/10/17 09:16:00;;;;;;;4.83;3.63;;;;;;;;;;4431939;32;20356;-55
2021/10/17 09:18:26;;;;;;;10.20;7.33;;;;;;;;;;4428158;32;20914;-57
2021/10/17 09:20:56;;;;;;;5.53;3.53;;;;;;;;;;4428795;32;20307;-55
2021/10/17 09:23:22;;;;;;;12.27;8.37;;;;;;;;;;4432199;32;20205;-54
2021/10/17 09:25:50;;;;;;;7.50;4.20;;;;;;;;;;4432107;32;20460;-55
2021/10/17 09:28:23;;;;;;;5.47;3.70;;;;;;;;;;4431089;32;20236;-56
2021/10/17 09:31:00;;;;;;;8.20;5.70;;;;;;;;;;4431397;32;20231;-56
2021/10/17 09:33:26;;;;;;;5.67;4.20;;;;;;;;;;4430411;32;20235;-55
2021/10/17 09:35:52;;;;;;;8.47;4.17;;;;;;;;;;4431845;32;20225;-56
2021/10/17 09:38:21;;;;;;;8.57;5.70;;;;;;;;;;4431222;32;20346;-56
2021/10/17 09:40:47;;;;;;;5.77;4.27;;;;;;;;;;4432686;32;20221;-57
2021/10/17 09:43:26;;;;;;;5.47;3.83;;;;;;;;;;4430732;32;20379;-55
2021/10/17 09:46:13;;;;;;;6.40;5.23;;;;;;;;;;4432032;32;20230;-55
2021/10/17 09:48:39;;;;;;;5.77;4.53;;;;;;;;;;4428938;32;20935;-55
2021/10/17 09:51:11;;;;;;;11.10;7.67;;;;;;;;;;4432587;32;20305;-55
2021/10/17 09:53:39;;;;;;;8.70;6.27;;;;;;;;;;4431358;32;20570;-56
2021/10/17 09:56:05;;;;;;;5.17;3.67;;;;;;;;;;4435805;32;20923;-54
2021/10/17 09:58:30;;;;;;;10.27;4.63;;;;;;;;;;4432688;32;20343;-56
2021/10/17 10:00:57;;;;;;;7.07;5.47;;;;;;;;;;4434889;32;20303;-57
2021/10/17 10:03:25;;;;;;;14.80;9.53;;;;;;;;;;4421400;32;20526;-55
2021/10/17 10:05:50;;;;;;;15.47;8.40;;;;;;;;;;4434703;32;20272;-55
2021/10/17 10:08:21;;;;;;;5.57;4.47;;;;;;;;;;4435297;32;20311;-55
2021/10/17 10:10:50;;;;;;;19.43;9.57;;;;;;;;;;4435457;32;20640;-56
2021/10/17 10:13:18;;;;;;;12.47;8.20;;;;;;;;;;4431556;32;20252;-55
2021/10/17 10:15:44;;;;;;;12.90;9.67;;;;;;;;;;4434981;32;20260;-55
2021/10/17 10:18:12;;;;;;;15.70;8.10;;;;;;;;;;4435017;32;20708;-54
2021/10/17 10:20:38;;;;;;;23.00;15.20;;;;;;;;;;4435427;32;20250;-55
2021/10/17 10:23:07;;;;;;;8.23;5.87;;;;;;;;;;4434412;32;20739;-55
2021/10/17 10:25:33;;;;;;;12.63;6.40;;;;;;;;;;4435133;32;20273;-54
2021/10/17 10:27:59;;;;;;;22.77;11.97;;;;;;;;;;4434998;32;20221;-55
2021/10/17 10:30:30;;;;;;;7.63;6.07;;;;;;;;;;4435402;32;20627;-56
2021/10/17 10:33:14;;;;;;;6.30;4.00;;;;;;;;;;4433895;32;20229;-55
2021/10/17 10:36:09;;;;;;;11.27;5.50;;;;;;;;;;4434672;32;20474;-55
2021/10/17 10:38:53;;;;;;;12.40;6.87;;;;;;;;;;4419767;32;20651;-55
2021/10/17 10:41:31;;;;;;;15.63;9.60;;;;;;;;;;4433754;32;20629;-55
2021/10/17 10:44:18;;;;;;;7.30;5.23;;;;;;;;;;4425806;32;20249;-57
2021/10/17 10:46:46;;;;;;;8.40;6.40;;;;;;;;;;4433411;32;20281;-55
2021/10/17 10:49:42;;;;;;;5.70;4.83;;;;;;;;;;4429421;32;20236;-56
2021/10/17 10:52:09;;;;;;;7.60;5.73;;;;;;;;;;4434007;32;20625;-56
2021/10/17 10:54:35;;;;;;;8.30;5.67;;;;;;;;;;4431239;32;20253;-55
2021/10/17 10:57:00;;;;;;;4.13;2.97;;;;;;;;;;4433562;32;20541;-55
2021/10/17 10:59:48;;;;;;;3.90;3.33;;;;;;;;;;4431141;32;20721;-56
2021/10/17 11:02:20;;;;;;;4.50;2.67;;;;;;;;;;4431068;32;20758;-55
2021/10/17 11:04:46;;;;;;;4.87;3.60;;;;;;;;;;4433190;32;20276;-56
2021/10/17 11:07:28;;;;;;;4.83;3.80;;;;;;;;;;4434165;32;20265;-56
2021/10/17 11:09:55;;;;;;;6.83;4.83;;;;;;;;;;4430054;32;20239;-55
2021/10/17 11:12:39;;;;;;;7.00;4.13;;;;;;;;;;4434078;32;20243;-55
2021/10/17 11:15:11;;;;;;;6.90;3.50;;;;;;;;;;4417287;32;20420;-55
2021/10/17 11:17:37;;;;;;;4.93;3.40;;;;;;;;;;4425025;32;20317;-55
2021/10/17 11:20:04;;;;;;;5.77;3.73;;;;;;;;;;4430979;32;20671;-54
2021/10/17 11:22:34;;;;;;;7.10;4.33;;;;;;;;;;4416219;32;20252;-55
2021/10/17 11:25:00;;;;;;;4.47;2.87;;;;;;;;;;4422350;32;20632;-55
2021/10/17 11:27:26;;;;;;;5.20;3.10;;;;;;;;;;4427362;32;20564;-54
2021/10/17 11:29:51;;;;;;;8.47;6.30;;;;;;;;;;4429085;32;20300;-54
2021/10/17 11:32:17;;;;;;;8.10;5.10;;;;;;;;;;4429229;32;20267;-54
2021/10/17 11:34:54;;;;;;;4.97;3.63;;;;;;;;;;4428393;32;20241;-53
2021/10/17 11:37:22;;;;;;;14.27;10.00;;;;;;;;;;4431630;32;20283;-54
2021/10/17 11:39:59;;;;;;;8.40;6.30;;;;;;;;;;4432556;32;20634;-54
2021/10/17 11:42:26;;;;;;;12.10;7.93;;;;;;;;;;4432344;32;20478;-54
2021/10/17 11:44:52;;;;;;;6.90;4.67;;;;;;;;;;4431988;32;20225;-54
2021/10/17 11:47:21;;;;;;;7.93;5.73;;;;;;;;;;4431927;32;20224;-54
2021/10/17 11:49:47;;;;;;;4.33;3.43;;;;;;;;;;4430852;32;20297;-55
2021/10/17 11:52:14;;;;;;;5.17;3.70;;;;;;;;;;4418349;32;20742;-55
2021/10/17 11:54:42;;;;;;;11.10;4.50;;;;;;;;;;4433039;32;20282;-54
2021/10/17 11:57:08;;;;;;;3.43;2.50;;;;;;;;;;4433645;32;20832;-54
2021/10/17 11:59:33;;;;;;;11.87;7.57;;;;;;;;;;4434014;32;20300;-55
2021/10/17 12:01:59;;;;;;;32.30;12.07;;;;;;;;;;4433195;32;20290;-54
2021/10/17 12:04:41;;;;;;;20.37;11.77;;;;;;;;;;4434371;32;20299;-54
2021/10/17 12:07:07;;;;;;;9.97;7.93;;;;;;;;;;4433596;32;20221;-53
2021/10/17 12:09:33;;;;;;;7.70;5.17;;;;;;;;;;4434613;32;20387;-54
2021/10/17 12:12:00;;;;;;;7.63;5.57;;;;;;;;;;4433767;32;20233;-53
2021/10/17 12:14:26;;;;;;;14.83;9.37;;;;;;;;;;4433966;32;20288;-53
2021/10/17 12:16:55;;;;;;;11.80;8.00;;;;;;;;;;4433636;32;20216;-54
2021/10/17 12:19:26;;;;;;;7.97;4.77;;;;;;;;;;4433767;32;20735;-56
2021/10/17 12:21:51;;;;;;;10.60;5.93;;;;;;;;;;4433888;32;20285;-55
2021/10/17 12:24:19;;;;;;;8.30;6.20;;;;;;;;;;4433932;32;20608;-56
2021/10/17 12:26:50;;;;;;;15.50;10.30;;;;;;;;;;4433653;32;20331;-54
2021/10/17 12:29:18;;;;;;;11.67;7.20;;;;;;;;;;4434082;32;20265;-55
2021/10/17 12:31:50;;;;;;;14.87;11.07;;;;;;;;;;4432784;32;20255;-55
2021/10/17 12:34:16;;;;;;;16.70;10.57;;;;;;;;;;4432225;32;20251;-53
2021/10/17 12:36:42;;;;;;;12.90;9.07;;;;;;;;;;4433937;32;20276;-53
2021/10/17 12:39:13;;;;;;;16.67;9.50;;;;;;;;;;4433105;32;20315;-54
2021/10/17 12:41:39;;;;;;;19.07;11.67;;;;;;;;;;4434005;32;20228;-54
2021/10/17 12:44:07;;;;;;;13.57;8.27;;;;;;;;;;4433300;32;21047;-54
2021/10/17 12:46:32;;;;;;;10.07;6.63;;;;;;;;;;4432384;32;20271;-53
2021/10/17 12:49:16;;;;;;;8.27;6.07;;;;;;;;;;4432878;32;20284;-55
2021/10/17 12:51:53;;;;;;;14.17;8.17;;;;;;;;;;4433737;32;20366;-53
2021/10/17 12:54:25;;;;;;;10.83;7.60;;;;;;;;;;4433083;32;20255;-54
2021/10/17 12:56:50;;;;;;;11.30;7.60;;;;;;;;;;4433292;32;20224;-54
2021/10/17 12:59:27;;;;;;;14.50;7.30;;;;;;;;;;4431851;32;20358;-54
2021/10/17 13:02:06;;;;;;;12.57;7.90;;;;;;;;;;4432818;32;20228;-54
2021/10/17 13:04:51;;;;;;;11.37;7.60;;;;;;;;;;4433206;32;20257;-53
2021/10/17 13:07:20;;;;;;;10.80;7.07;;;;;;;;;;4433596;32;20593;-53
2021/10/17 13:09:48;;;;;;;10.57;6.53;;;;;;;;;;4432902;32;20648;-52
2021/10/17 13:12:28;;;;;;;14.37;8.87;;;;;;;;;;4430356;32;20315;-53
2021/10/17 13:15:05;;;;;;;8.30;6.23;;;;;;;;;;4433632;32;20201;-53
2021/10/17 13:17:33;;;;;;;5.87;4.50;;;;;;;;;;4433103;32;20268;-54
2021/10/17 13:20:02;;;;;;;7.83;5.17;;;;;;;;;;4431021;32;20209;-54
2021/10/17 13:22:27;;;;;;;7.20;4.77;;;;;;;;;;4433002;32;21210;-54
2021/10/17 13:24:53;;;;;;;10.40;6.23;;;;;;;;;;4433100;32;20303;-54
2021/10/17 13:27:18;;;;;;;14.53;9.17;;;;;;;;;;4433053;32;20611;-54
2021/10/17 13:29:44;;;;;;;9.57;6.70;;;;;;;;;;4433055;32;20617;-55
2021/10/17 13:32:11;;;;;;;15.03;10.27;;;;;;;;;;4433487;32;20263;-54
2021/10/17 13:34:37;;;;;;;15.13;8.93;;;;;;;;;;4432852;32;20283;-55
2021/10/17 13:37:03;;;;;;;11.33;7.43;;;;;;;;;;4432349;32;20249;-54
2021/10/17 13:39:28;;;;;;;13.10;7.23;;;;;;;;;;4431499;32;20328;-55
2021/10/17 13:41:54;;;;;;;15.90;9.47;;;;;;;;;;4431237;32;20315;-54
2021/10/17 13:44:19;;;;;;;11.07;5.97;;;;;;;;;;4429530;32;20915;-54
2021/10/17 13:46:45;;;;;;;8.93;6.27;;;;;;;;;;4430905;32;20240;-53
2021/10/17 13:49:10;;;;;;;18.13;11.97;;;;;;;;;;4430742;32;20308;-54
2021/10/17 13:51:35;;;;;;;15.93;9.60;;;;;;;;;;4432584;32;20216;-55
2021/10/17 13:54:01;;;;;;;13.10;7.50;;;;;;;;;;4431526;32;20774;-54
2021/10/17 13:56:27;;;;;;;17.20;12.00;;;;;;;;;;4432943;32;20229;-54
2021/10/17 13:58:52;;;;;;;16.23;10.03;;;;;;;;;;4431369;32;20300;-54
2021/10/17 14:01:18;;;;;;;14.60;9.87;;;;;;;;;;4432264;32;20293;-55
2021/10/17 14:03:44;;;;;;;20.20;11.53;;;;;;;;;;4432991;32;20312;-54
2021/10/17 14:06:09;;;;;;;17.13;9.90;;;;;;;;;;4432882;32;20336;-54
2021/10/17 14:08:35;;;;;;;13.40;9.37;;;;;;;;;;4440224;32;20664;-54
2021/10/17 14:11:02;;;;;;;19.90;12.73;;;;;;;;;;4428695;32;20300;-54
2021/10/17 14:13:27;;;;;;;17.53;11.90;;;;;;;;;;4429028;32;20292;-54
2021/10/17 14:15:53;;;;;;;29.33;15.30;;;;;;;;;;4428470;32;20721;-55
2021/10/17 14:18:19;;;;;;;25.30;13.23;;;;;;;;;;4428625;32;20304;-54
2021/10/17 14:20:45;;;;;;;34.23;12.43;;;;;;;;;;4428202;32;20331;-54
2021/10/17 14:23:10;;;;;;;17.17;11.10;;;;;;;;;;4428717;32;20800;-53
2021/10/17 14:25:36;;;;;;;13.17;9.37;;;;;;;;;;4432151;32;20314;-55
2021/10/17 14:28:01;;;;;;;21.67;11.73;;;;;;;;;;4432379;32;20750;-54
2021/10/17 14:30:27;;;;;;;19.77;12.03;;;;;;;;;;4431881;32;20382;-53
2021/10/17 14:32:53;;;;;;;18.90;11.27;;;;;;;;;;4431659;32;20667;-54